sensor_id;sensor_type;location;lat;lon;timestamp;temperature;humidity
23827;DHT22;12094;50.822;4.376;2022-07-29T00:00:25;20.60;99.90
23827;DHT22;12094;50.822;4.376;2022-07-29T00:02:56;20.50;99.90
23827;DHT22;12094;50.822;4.376;2022-07-29T00:05:24;20.50;99.90
23827;DHT22;12094;50.822;4.376;2022-07-29T00:07:51;20.50;99.90
23827;DHT22;12094;50.822;4.376;2022-07-29T00:10:18;20.60;99.90
23827;DHT22;12094;50.822;4.376;2022-07-29T00:12:45;20.40;99.90
23827;DHT22;12094;50.822;4.376;2022-07-29T00:15:13;20.40;99.90
23827;DHT22;12094;50.822;4.376;2022-07-29T00:17:41;20.50;99.90
23827;DHT22;12094;50.822;4.376;2022-07-29T00:20:09;20.50;99.90
23827;DHT22;12094;50.822;4.376;2022-07-29T00:22:39;20.50;99.90
23827;DHT22;12094;50.822;4.376;2022-07-29T00:25:06;20.40;99.90
23827;DHT22;12094;50.822;4.376;2022-07-29T00:27:35;20.30;99.90
23827;DHT22;12094;50.822;4.376;2022-07-29T00:30:04;20.30;99.90
23827;DHT22;12094;50.822;4.376;2022-07-29T00:32:31;20.30;99.90
23827;DHT22;12094;50.822;4.376;2022-07-29T00:34:59;20.20;99.90
23827;DHT22;12094;50.822;4.376;2022-07-29T00:37:49;20.20;99.90
23827;DHT22;12094;50.822;4.376;2022-07-29T00:40:16;20.20;99.90
23827;DHT22;12094;50.822;4.376;2022-07-29T00:42:48;20.20;99.90
23827;DHT22;12094;50.822;4.376;2022-07-29T00:45:16;20.20;99.90
23827;DHT22;12094;50.822;4.376;2022-07-29T00:47:43;20.10;99.90
23827;DHT22;12094;50.822;4.376;2022-07-29T00:50:12;20.10;99.90
23827;DHT22;12094;50.822;4.376;2022-07-29T00:52:41;20.00;99.90
23827;DHT22;12094;50.822;4.376;2022-07-29T00:55:11;20.00;99.90
23827;DHT22;12094;50.822;4.376;2022-07-29T00:57:40;19.80;99.90
23827;DHT22;12094;50.822;4.376;2022-07-29T01:00:10;19.90;99.90
23827;DHT22;12094;50.822;4.376;2022-07-29T01:02:37;19.80;99.90
23827;DHT22;12094;50.822;4.376;2022-07-29T01:05:05;19.80;99.90
23827;DHT22;12094;50.822;4.376;2022-07-29T01:07:34;19.80;99.90
23827;DHT22;12094;50.822;4.376;2022-07-29T01:10:06;19.80;99.90
23827;DHT22;12094;50.822;4.376;2022-07-29T01:12:37;19.80;99.90
23827;DHT22;12094;50.822;4.376;2022-07-29T01:15:07;19.80;99.90
23827;DHT22;12094;50.822;4.376;2022-07-29T01:20:37;19.60;99.90
23827;DHT22;12094;50.822;4.376;2022-07-29T01:28:55;19.50;99.90
23827;DHT22;12094;50.822;4.376;2022-07-29T01:34:41;19.50;99.90
23827;DHT22;12094;50.822;4.376;2022-07-29T01:39:47;19.30;99.90
23827;DHT22;12094;50.822;4.376;2022-07-29T01:42:32;19.30;99.90
23827;DHT22;12094;50.822;4.376;2022-07-29T01:45:17;19.40;99.90
23827;DHT22;12094;50.822;4.376;2022-07-29T01:51:05;19.30;99.90
23827;DHT22;12094;50.822;4.376;2022-07-29T01:56:26;19.20;99.90
23827;DHT22;12094;50.822;4.376;2022-07-29T01:58:58;19.10;99.90
23827;DHT22;12094;50.822;4.376;2022-07-29T02:01:26;19.10;99.90
23827;DHT22;12094;50.822;4.376;2022-07-29T02:03:57;18.90;99.90
23827;DHT22;12094;50.822;4.376;2022-07-29T02:06:25;19.00;99.90
23827;DHT22;12094;50.822;4.376;2022-07-29T02:08:56;18.90;99.90
23827;DHT22;12094;50.822;4.376;2022-07-29T02:11:25;18.80;99.90
23827;DHT22;12094;50.822;4.376;2022-07-29T02:13:55;18.90;99.90
23827;DHT22;12094;50.822;4.376;2022-07-29T02:16:24;18.90;99.90
23827;DHT22;12094;50.822;4.376;2022-07-29T02:18:53;18.90;99.90
23827;DHT22;12094;50.822;4.376;2022-07-29T02:21:24;18.90;99.90
23827;DHT22;12094;50.822;4.376;2022-07-29T02:23:52;18.80;99.90
23827;DHT22;12094;50.822;4.376;2022-07-29T02:26:20;18.80;99.90
23827;DHT22;12094;50.822;4.376;2022-07-29T02:28:50;18.80;99.90
23827;DHT22;12094;50.822;4.376;2022-07-29T02:31:21;18.80;99.90
23827;DHT22;12094;50.822;4.376;2022-07-29T02:33:50;18.80;99.90
23827;DHT22;12094;50.822;4.376;2022-07-29T02:36:22;18.80;99.90
23827;DHT22;12094;50.822;4.376;2022-07-29T02:38:50;18.80;99.90
23827;DHT22;12094;50.822;4.376;2022-07-29T02:41:30;18.80;99.90
23827;DHT22;12094;50.822;4.376;2022-07-29T02:44:03;18.80;99.90
23827;DHT22;12094;50.822;4.376;2022-07-29T02:46:33;18.80;99.90
23827;DHT22;12094;50.822;4.376;2022-07-29T02:49:13;18.70;99.90
23827;DHT22;12094;50.822;4.376;2022-07-29T02:52:10;18.70;99.90
23827;DHT22;12094;50.822;4.376;2022-07-29T02:55:15;18.70;99.90
23827;DHT22;12094;50.822;4.376;2022-07-29T02:57:46;18.60;99.90
23827;DHT22;12094;50.822;4.376;2022-07-29T03:00:26;18.50;99.90
23827;DHT22;12094;50.822;4.376;2022-07-29T03:03:00;18.50;99.90
23827;DHT22;12094;50.822;4.376;2022-07-29T03:05:31;18.40;99.90
23827;DHT22;12094;50.822;4.376;2022-07-29T03:08:01;18.50;99.90
23827;DHT22;12094;50.822;4.376;2022-07-29T03:10:30;18.50;99.90
23827;DHT22;12094;50.822;4.376;2022-07-29T03:12:58;18.50;99.90
23827;DHT22;12094;50.822;4.376;2022-07-29T03:15:26;18.50;99.90
23827;DHT22;12094;50.822;4.376;2022-07-29T03:17:54;18.50;99.90
23827;DHT22;12094;50.822;4.376;2022-07-29T03:20:22;18.40;99.90
23827;DHT22;12094;50.822;4.376;2022-07-29T03:22:50;18.30;99.90
23827;DHT22;12094;50.822;4.376;2022-07-29T03:25:18;18.40;99.90
23827;DHT22;12094;50.822;4.376;2022-07-29T03:27:46;18.30;99.90
23827;DHT22;12094;50.822;4.376;2022-07-29T03:30:14;18.40;99.90
23827;DHT22;12094;50.822;4.376;2022-07-29T03:32:48;18.30;99.90
23827;DHT22;12094;50.822;4.376;2022-07-29T03:35:20;18.20;99.90
23827;DHT22;12094;50.822;4.376;2022-07-29T03:37:48;18.30;99.90
23827;DHT22;12094;50.822;4.376;2022-07-29T03:40:19;18.30;99.90
23827;DHT22;12094;50.822;4.376;2022-07-29T03:42:52;18.30;99.90
23827;DHT22;12094;50.822;4.376;2022-07-29T03:45:20;18.20;99.90
23827;DHT22;12094;50.822;4.376;2022-07-29T03:47:55;18.20;99.90
23827;DHT22;12094;50.822;4.376;2022-07-29T03:50:28;18.10;99.90
23827;DHT22;12094;50.822;4.376;2022-07-29T03:52:55;18.10;99.90
23827;DHT22;12094;50.822;4.376;2022-07-29T03:55:23;18.10;99.90
23827;DHT22;12094;50.822;4.376;2022-07-29T03:57:50;18.20;99.90
23827;DHT22;12094;50.822;4.376;2022-07-29T04:00:18;18.10;99.90
23827;DHT22;12094;50.822;4.376;2022-07-29T04:02:46;18.10;99.90
23827;DHT22;12094;50.822;4.376;2022-07-29T04:05:16;18.10;99.90
23827;DHT22;12094;50.822;4.376;2022-07-29T04:07:45;18.00;99.90
23827;DHT22;12094;50.822;4.376;2022-07-29T04:10:12;18.10;99.90
23827;DHT22;12094;50.822;4.376;2022-07-29T04:12:40;18.00;99.90
23827;DHT22;12094;50.822;4.376;2022-07-29T04:15:07;18.00;99.90
23827;DHT22;12094;50.822;4.376;2022-07-29T04:17:36;18.00;99.90
23827;DHT22;12094;50.822;4.376;2022-07-29T04:20:11;18.00;99.90
23827;DHT22;12094;50.822;4.376;2022-07-29T04:22:41;18.00;99.90
23827;DHT22;12094;50.822;4.376;2022-07-29T04:25:08;18.00;99.90
23827;DHT22;12094;50.822;4.376;2022-07-29T04:27:35;18.10;99.90
23827;DHT22;12094;50.822;4.376;2022-07-29T04:30:02;18.10;99.90
23827;DHT22;12094;50.822;4.376;2022-07-29T04:32:30;18.10;99.90
23827;DHT22;12094;50.822;4.376;2022-07-29T04:34:59;18.00;99.90
23827;DHT22;12094;50.822;4.376;2022-07-29T04:37:26;17.90;99.90
23827;DHT22;12094;50.822;4.376;2022-07-29T04:39:53;17.90;99.90
23827;DHT22;12094;50.822;4.376;2022-07-29T04:42:19;18.10;99.90
23827;DHT22;12094;50.822;4.376;2022-07-29T04:44:53;17.90;99.90
23827;DHT22;12094;50.822;4.376;2022-07-29T04:47:20;18.00;99.90
23827;DHT22;12094;50.822;4.376;2022-07-29T04:49:47;17.90;99.90
23827;DHT22;12094;50.822;4.376;2022-07-29T04:52:14;17.90;99.90
23827;DHT22;12094;50.822;4.376;2022-07-29T04:54:40;17.90;99.90
23827;DHT22;12094;50.822;4.376;2022-07-29T04:57:07;17.90;99.90
23827;DHT22;12094;50.822;4.376;2022-07-29T04:59:34;17.90;99.90
23827;DHT22;12094;50.822;4.376;2022-07-29T05:02:01;17.90;99.90
23827;DHT22;12094;50.822;4.376;2022-07-29T05:04:28;17.90;99.90
23827;DHT22;12094;50.822;4.376;2022-07-29T05:06:56;17.90;99.90
23827;DHT22;12094;50.822;4.376;2022-07-29T05:09:23;17.90;99.90
23827;DHT22;12094;50.822;4.376;2022-07-29T05:11:50;17.90;99.90
23827;DHT22;12094;50.822;4.376;2022-07-29T05:14:17;17.90;99.90
23827;DHT22;12094;50.822;4.376;2022-07-29T05:16:45;18.00;99.90
23827;DHT22;12094;50.822;4.376;2022-07-29T05:19:12;18.00;99.90
23827;DHT22;12094;50.822;4.376;2022-07-29T05:21:44;18.00;99.90
23827;DHT22;12094;50.822;4.376;2022-07-29T05:24:11;18.00;99.90
23827;DHT22;12094;50.822;4.376;2022-07-29T05:26:39;18.00;99.90
23827;DHT22;12094;50.822;4.376;2022-07-29T05:29:06;18.00;99.90
23827;DHT22;12094;50.822;4.376;2022-07-29T05:31:53;18.00;99.90
23827;DHT22;12094;50.822;4.376;2022-07-29T05:34:19;18.00;99.90
23827;DHT22;12094;50.822;4.376;2022-07-29T05:36:47;18.10;99.90
23827;DHT22;12094;50.822;4.376;2022-07-29T05:39:16;18.20;99.90
23827;DHT22;12094;50.822;4.376;2022-07-29T05:41:44;18.20;99.90
23827;DHT22;12094;50.822;4.376;2022-07-29T05:44:17;18.30;99.90
23827;DHT22;12094;50.822;4.376;2022-07-29T05:46:44;18.40;99.90
23827;DHT22;12094;50.822;4.376;2022-07-29T05:49:15;18.50;99.90
23827;DHT22;12094;50.822;4.376;2022-07-29T05:51:53;18.50;99.90
23827;DHT22;12094;50.822;4.376;2022-07-29T05:54:21;18.40;99.90
23827;DHT22;12094;50.822;4.376;2022-07-29T05:56:51;18.30;99.90
23827;DHT22;12094;50.822;4.376;2022-07-29T05:59:19;18.20;99.90
23827;DHT22;12094;50.822;4.376;2022-07-29T06:01:45;18.30;99.90
23827;DHT22;12094;50.822;4.376;2022-07-29T06:04:14;18.30;99.90
23827;DHT22;12094;50.822;4.376;2022-07-29T06:06:41;18.40;99.90
23827;DHT22;12094;50.822;4.376;2022-07-29T06:09:08;18.50;99.90
23827;DHT22;12094;50.822;4.376;2022-07-29T06:11:39;18.60;99.90
23827;DHT22;12094;50.822;4.376;2022-07-29T06:14:05;18.70;99.90
23827;DHT22;12094;50.822;4.376;2022-07-29T06:16:32;18.80;99.90
23827;DHT22;12094;50.822;4.376;2022-07-29T06:18:59;18.80;99.90
23827;DHT22;12094;50.822;4.376;2022-07-29T06:21:27;18.80;99.90
23827;DHT22;12094;50.822;4.376;2022-07-29T06:23:54;18.80;99.90
23827;DHT22;12094;50.822;4.376;2022-07-29T06:26:21;18.80;99.90
23827;DHT22;12094;50.822;4.376;2022-07-29T06:28:58;18.90;99.90
23827;DHT22;12094;50.822;4.376;2022-07-29T06:31:26;19.00;99.90
23827;DHT22;12094;50.822;4.376;2022-07-29T06:33:53;19.10;99.90
23827;DHT22;12094;50.822;4.376;2022-07-29T06:36:21;19.10;99.90
23827;DHT22;12094;50.822;4.376;2022-07-29T06:38:50;19.20;99.90
23827;DHT22;12094;50.822;4.376;2022-07-29T06:41:19;19.30;99.90
23827;DHT22;12094;50.822;4.376;2022-07-29T06:43:46;19.20;99.90
23827;DHT22;12094;50.822;4.376;2022-07-29T06:46:20;19.30;99.90
23827;DHT22;12094;50.822;4.376;2022-07-29T06:48:49;19.40;99.90
23827;DHT22;12094;50.822;4.376;2022-07-29T06:51:17;19.60;99.90
23827;DHT22;12094;50.822;4.376;2022-07-29T06:53:52;19.70;99.90
23827;DHT22;12094;50.822;4.376;2022-07-29T06:56:32;19.90;99.90
23827;DHT22;12094;50.822;4.376;2022-07-29T06:59:08;20.20;99.90
23827;DHT22;12094;50.822;4.376;2022-07-29T07:01:41;20.40;99.90
23827;DHT22;12094;50.822;4.376;2022-07-29T07:04:09;20.80;99.90
23827;DHT22;12094;50.822;4.376;2022-07-29T07:06:37;21.00;99.90
23827;DHT22;12094;50.822;4.376;2022-07-29T07:09:05;21.20;99.90
23827;DHT22;12094;50.822;4.376;2022-07-29T07:11:33;20.90;99.90
23827;DHT22;12094;50.822;4.376;2022-07-29T07:14:01;20.40;99.90
23827;DHT22;12094;50.822;4.376;2022-07-29T07:16:30;20.00;99.90
23827;DHT22;12094;50.822;4.376;2022-07-29T07:18:58;20.20;99.90
23827;DHT22;12094;50.822;4.376;2022-07-29T07:21:25;20.40;99.90
23827;DHT22;12094;50.822;4.376;2022-07-29T07:23:56;20.50;99.90
23827;DHT22;12094;50.822;4.376;2022-07-29T07:26:25;20.70;99.90
23827;DHT22;12094;50.822;4.376;2022-07-29T07:28:53;20.50;99.90
23827;DHT22;12094;50.822;4.376;2022-07-29T07:31:20;20.60;99.90
23827;DHT22;12094;50.822;4.376;2022-07-29T07:33:47;20.70;99.90
23827;DHT22;12094;50.822;4.376;2022-07-29T07:36:15;20.80;99.90
23827;DHT22;12094;50.822;4.376;2022-07-29T07:38:42;20.90;99.90
23827;DHT22;12094;50.822;4.376;2022-07-29T07:41:09;20.90;99.90
23827;DHT22;12094;50.822;4.376;2022-07-29T07:43:36;20.80;99.90
23827;DHT22;12094;50.822;4.376;2022-07-29T07:46:03;20.90;99.90
23827;DHT22;12094;50.822;4.376;2022-07-29T07:48:30;21.00;99.90
23827;DHT22;12094;50.822;4.376;2022-07-29T07:50:58;21.10;99.90
23827;DHT22;12094;50.822;4.376;2022-07-29T07:53:25;21.20;99.90
23827;DHT22;12094;50.822;4.376;2022-07-29T07:55:52;21.20;99.90
23827;DHT22;12094;50.822;4.376;2022-07-29T07:58:38;21.20;99.90
23827;DHT22;12094;50.822;4.376;2022-07-29T08:01:05;21.10;99.90
23827;DHT22;12094;50.822;4.376;2022-07-29T08:03:34;21.30;99.90
23827;DHT22;12094;50.822;4.376;2022-07-29T08:06:02;21.50;99.90
23827;DHT22;12094;50.822;4.376;2022-07-29T08:08:29;21.60;99.90
23827;DHT22;12094;50.822;4.376;2022-07-29T08:10:56;21.70;99.90
23827;DHT22;12094;50.822;4.376;2022-07-29T08:13:25;21.80;99.90
23827;DHT22;12094;50.822;4.376;2022-07-29T08:15:54;21.90;99.90
23827;DHT22;12094;50.822;4.376;2022-07-29T08:18:26;21.90;99.90
23827;DHT22;12094;50.822;4.376;2022-07-29T08:20:54;21.70;99.90
23827;DHT22;12094;50.822;4.376;2022-07-29T08:23:22;21.90;99.90
23827;DHT22;12094;50.822;4.376;2022-07-29T08:25:52;22.00;99.90
23827;DHT22;12094;50.822;4.376;2022-07-29T08:28:21;22.00;99.90
23827;DHT22;12094;50.822;4.376;2022-07-29T08:30:52;22.10;99.90
23827;DHT22;12094;50.822;4.376;2022-07-29T08:33:21;22.10;99.90
23827;DHT22;12094;50.822;4.376;2022-07-29T08:35:48;22.10;99.90
23827;DHT22;12094;50.822;4.376;2022-07-29T08:38:17;22.20;99.90
23827;DHT22;12094;50.822;4.376;2022-07-29T08:40:45;22.30;99.90
23827;DHT22;12094;50.822;4.376;2022-07-29T08:43:13;22.50;99.90
23827;DHT22;12094;50.822;4.376;2022-07-29T08:45:45;22.60;99.90
23827;DHT22;12094;50.822;4.376;2022-07-29T08:48:16;22.50;99.90
23827;DHT22;12094;50.822;4.376;2022-07-29T08:50:44;22.50;99.90
23827;DHT22;12094;50.822;4.376;2022-07-29T08:53:16;22.50;99.90
23827;DHT22;12094;50.822;4.376;2022-07-29T08:55:46;22.50;99.90
23827;DHT22;12094;50.822;4.376;2022-07-29T08:58:14;22.50;99.90
23827;DHT22;12094;50.822;4.376;2022-07-29T09:00:44;22.60;99.90
23827;DHT22;12094;50.822;4.376;2022-07-29T09:03:17;22.80;99.90
23827;DHT22;12094;50.822;4.376;2022-07-29T09:05:45;23.00;99.90
23827;DHT22;12094;50.822;4.376;2022-07-29T09:08:15;23.00;99.90
23827;DHT22;12094;50.822;4.376;2022-07-29T09:10:44;23.10;99.90
23827;DHT22;12094;50.822;4.376;2022-07-29T09:13:12;23.20;99.90
23827;DHT22;12094;50.822;4.376;2022-07-29T09:15:40;23.30;99.90
23827;DHT22;12094;50.822;4.376;2022-07-29T09:18:08;23.30;99.90
23827;DHT22;12094;50.822;4.376;2022-07-29T09:20:55;23.30;99.90
23827;DHT22;12094;50.822;4.376;2022-07-29T09:26:32;23.50;99.90
23827;DHT22;12094;50.822;4.376;2022-07-29T09:29:00;23.60;99.90
23827;DHT22;12094;50.822;4.376;2022-07-29T09:31:37;23.60;99.90
23827;DHT22;12094;50.822;4.376;2022-07-29T09:34:06;23.70;99.90
23827;DHT22;12094;50.822;4.376;2022-07-29T09:36:46;23.70;99.90
23827;DHT22;12094;50.822;4.376;2022-07-29T09:39:34;23.90;99.90
23827;DHT22;12094;50.822;4.376;2022-07-29T09:42:06;24.00;99.90
23827;DHT22;12094;50.822;4.376;2022-07-29T09:44:48;23.90;99.90
23827;DHT22;12094;50.822;4.376;2022-07-29T09:47:17;23.80;99.90
23827;DHT22;12094;50.822;4.376;2022-07-29T09:49:59;23.90;99.90
23827;DHT22;12094;50.822;4.376;2022-07-29T09:52:29;23.90;99.90
23827;DHT22;12094;50.822;4.376;2022-07-29T09:55:07;23.80;99.90
23827;DHT22;12094;50.822;4.376;2022-07-29T09:57:34;23.90;99.90
23827;DHT22;12094;50.822;4.376;2022-07-29T10:00:08;24.00;99.90
23827;DHT22;12094;50.822;4.376;2022-07-29T10:02:41;24.20;99.90
23827;DHT22;12094;50.822;4.376;2022-07-29T10:05:21;24.30;99.90
23827;DHT22;12094;50.822;4.376;2022-07-29T10:07:49;24.40;99.90
23827;DHT22;12094;50.822;4.376;2022-07-29T10:12:54;24.80;99.90
23827;DHT22;12094;50.822;4.376;2022-07-29T10:15:28;24.90;99.90
23827;DHT22;12094;50.822;4.376;2022-07-29T10:17:56;24.80;99.90
23827;DHT22;12094;50.822;4.376;2022-07-29T10:20:26;24.80;99.90
23827;DHT22;12094;50.822;4.376;2022-07-29T10:22:54;24.80;99.90
23827;DHT22;12094;50.822;4.376;2022-07-29T10:25:22;24.80;99.90
23827;DHT22;12094;50.822;4.376;2022-07-29T10:27:51;24.80;99.90
23827;DHT22;12094;50.822;4.376;2022-07-29T10:30:19;24.80;99.90
23827;DHT22;12094;50.822;4.376;2022-07-29T10:44:29;25.60;99.90
23827;DHT22;12094;50.822;4.376;2022-07-29T10:47:00;25.40;99.90
23827;DHT22;12094;50.822;4.376;2022-07-29T10:49:28;25.40;99.90
23827;DHT22;12094;50.822;4.376;2022-07-29T10:52:08;25.30;99.90
23827;DHT22;12094;50.822;4.376;2022-07-29T10:54:40;25.20;99.90
23827;DHT22;12094;50.822;4.376;2022-07-29T10:57:22;25.20;99.90
23827;DHT22;12094;50.822;4.376;2022-07-29T11:02:44;25.40;99.90
23827;DHT22;12094;50.822;4.376;2022-07-29T11:05:18;25.50;99.90
23827;DHT22;12094;50.822;4.376;2022-07-29T11:08:19;25.70;99.90
23827;DHT22;12094;50.822;4.376;2022-07-29T11:16:22;25.90;99.90
23827;DHT22;12094;50.822;4.376;2022-07-29T11:21:52;26.20;99.90
23827;DHT22;12094;50.822;4.376;2022-07-29T11:24:33;26.30;99.90
23827;DHT22;12094;50.822;4.376;2022-07-29T11:27:21;26.50;99.90
23827;DHT22;12094;50.822;4.376;2022-07-29T11:29:56;26.80;99.90
23827;DHT22;12094;50.822;4.376;2022-07-29T11:32:37;27.20;99.90
23827;DHT22;12094;50.822;4.376;2022-07-29T11:35:21;27.70;99.80
23827;DHT22;12094;50.822;4.376;2022-07-29T11:38:25;27.70;99.50
23827;DHT22;12094;50.822;4.376;2022-07-29T11:41:26;28.00;98.80
23827;DHT22;12094;50.822;4.376;2022-07-29T11:44:00;27.80;97.60
23827;DHT22;12094;50.822;4.376;2022-07-29T11:49:19;27.10;97.00
23827;DHT22;12094;50.822;4.376;2022-07-29T11:51:51;26.90;97.70
23827;DHT22;12094;50.822;4.376;2022-07-29T11:54:29;26.90;98.30
23827;DHT22;12094;50.822;4.376;2022-07-29T11:56:59;27.00;98.20
23827;DHT22;12094;50.822;4.376;2022-07-29T11:59:28;27.40;97.90
23827;DHT22;12094;50.822;4.376;2022-07-29T12:02:17;27.90;97.40
23827;DHT22;12094;50.822;4.376;2022-07-29T12:05:04;28.40;96.30
23827;DHT22;12094;50.822;4.376;2022-07-29T12:07:38;29.00;95.60
23827;DHT22;12094;50.822;4.376;2022-07-29T12:10:11;29.60;94.60
23827;DHT22;12094;50.822;4.376;2022-07-29T12:12:51;29.80;93.80
23827;DHT22;12094;50.822;4.376;2022-07-29T12:15:20;29.60;93.40
23827;DHT22;12094;50.822;4.376;2022-07-29T12:17:48;29.30;93.10
23827;DHT22;12094;50.822;4.376;2022-07-29T12:20:29;28.90;92.70
23827;DHT22;12094;50.822;4.376;2022-07-29T12:22:57;28.90;93.00
23827;DHT22;12094;50.822;4.376;2022-07-29T12:25:24;29.30;92.20
23827;DHT22;12094;50.822;4.376;2022-07-29T12:28:02;29.60;91.60
23827;DHT22;12094;50.822;4.376;2022-07-29T12:30:40;30.10;91.10
23827;DHT22;12094;50.822;4.376;2022-07-29T12:33:14;30.50;90.50
23827;DHT22;12094;50.822;4.376;2022-07-29T12:35:44;30.20;90.20
23827;DHT22;12094;50.822;4.376;2022-07-29T12:38:20;30.70;89.70
23827;DHT22;12094;50.822;4.376;2022-07-29T12:40:49;31.30;88.10
23827;DHT22;12094;50.822;4.376;2022-07-29T12:43:20;31.40;86.40
23827;DHT22;12094;50.822;4.376;2022-07-29T12:45:50;31.80;85.30
23827;DHT22;12094;50.822;4.376;2022-07-29T12:48:35;31.40;83.70
23827;DHT22;12094;50.822;4.376;2022-07-29T12:51:06;30.40;85.50
23827;DHT22;12094;50.822;4.376;2022-07-29T12:53:34;30.00;86.40
23827;DHT22;12094;50.822;4.376;2022-07-29T12:56:03;29.80;86.40
23827;DHT22;12094;50.822;4.376;2022-07-29T12:58:52;29.80;86.50
23827;DHT22;12094;50.822;4.376;2022-07-29T13:01:21;29.80;87.40
23827;DHT22;12094;50.822;4.376;2022-07-29T13:03:54;30.10;87.60
23827;DHT22;12094;50.822;4.376;2022-07-29T13:06:48;30.70;85.10
23827;DHT22;12094;50.822;4.376;2022-07-29T13:09:39;31.10;83.70
23827;DHT22;12094;50.822;4.376;2022-07-29T13:12:12;30.90;82.30
23827;DHT22;12094;50.822;4.376;2022-07-29T13:14:49;30.80;82.50
23827;DHT22;12094;50.822;4.376;2022-07-29T13:17:21;30.40;82.70
23827;DHT22;12094;50.822;4.376;2022-07-29T13:20:07;29.90;83.70
23827;DHT22;12094;50.822;4.376;2022-07-29T13:22:40;29.00;86.10
23827;DHT22;12094;50.822;4.376;2022-07-29T13:25:09;28.60;86.50
23827;DHT22;12094;50.822;4.376;2022-07-29T13:27:38;28.50;86.70
23827;DHT22;12094;50.822;4.376;2022-07-29T13:30:08;28.50;88.00
23827;DHT22;12094;50.822;4.376;2022-07-29T13:32:42;28.30;88.80
23827;DHT22;12094;50.822;4.376;2022-07-29T13:35:09;28.00;90.00
23827;DHT22;12094;50.822;4.376;2022-07-29T13:37:37;28.00;90.10
23827;DHT22;12094;50.822;4.376;2022-07-29T13:40:09;28.70;90.10
23827;DHT22;12094;50.822;4.376;2022-07-29T13:42:38;29.60;87.40
23827;DHT22;12094;50.822;4.376;2022-07-29T13:45:06;30.20;85.30
23827;DHT22;12094;50.822;4.376;2022-07-29T13:47:33;30.30;84.50
23827;DHT22;12094;50.822;4.376;2022-07-29T13:50:01;30.10;83.80
23827;DHT22;12094;50.822;4.376;2022-07-29T13:52:31;30.10;84.20
23827;DHT22;12094;50.822;4.376;2022-07-29T13:55:00;31.00;82.90
23827;DHT22;12094;50.822;4.376;2022-07-29T13:57:28;31.70;80.30
23827;DHT22;12094;50.822;4.376;2022-07-29T13:59:56;32.20;78.60
23827;DHT22;12094;50.822;4.376;2022-07-29T14:02:23;32.10;77.40
23827;DHT22;12094;50.822;4.376;2022-07-29T14:04:53;31.60;78.30
23827;DHT22;12094;50.822;4.376;2022-07-29T14:07:20;31.50;78.00
23827;DHT22;12094;50.822;4.376;2022-07-29T14:09:49;31.40;78.60
23827;DHT22;12094;50.822;4.376;2022-07-29T14:12:16;31.70;77.20
23827;DHT22;12094;50.822;4.376;2022-07-29T14:14:46;32.10;75.40
23827;DHT22;12094;50.822;4.376;2022-07-29T14:17:16;32.50;74.40
23827;DHT22;12094;50.822;4.376;2022-07-29T14:19:43;32.20;74.20
23827;DHT22;12094;50.822;4.376;2022-07-29T14:22:10;32.20;74.30
23827;DHT22;12094;50.822;4.376;2022-07-29T14:24:37;32.60;73.00
23827;DHT22;12094;50.822;4.376;2022-07-29T14:27:20;33.50;69.50
23827;DHT22;12094;50.822;4.376;2022-07-29T14:30:07;34.20;66.90
23827;DHT22;12094;50.822;4.376;2022-07-29T14:32:35;33.90;66.20
23827;DHT22;12094;50.822;4.376;2022-07-29T14:38:09;32.60;69.40
23827;DHT22;12094;50.822;4.376;2022-07-29T14:40:54;31.90;71.30
23827;DHT22;12094;50.822;4.376;2022-07-29T14:43:28;31.30;72.30
23827;DHT22;12094;50.822;4.376;2022-07-29T14:46:00;30.70;72.60
23827;DHT22;12094;50.822;4.376;2022-07-29T14:48:34;30.50;73.60
23827;DHT22;12094;50.822;4.376;2022-07-29T14:51:02;31.20;72.40
23827;DHT22;12094;50.822;4.376;2022-07-29T14:53:51;31.70;69.90
23827;DHT22;12094;50.822;4.376;2022-07-29T14:56:27;32.40;68.20
23827;DHT22;12094;50.822;4.376;2022-07-29T14:59:19;32.50;68.30
23827;DHT22;12094;50.822;4.376;2022-07-29T15:02:11;32.70;67.90
23827;DHT22;12094;50.822;4.376;2022-07-29T15:04:43;32.40;68.80
23827;DHT22;12094;50.822;4.376;2022-07-29T15:07:17;31.90;69.30
23827;DHT22;12094;50.822;4.376;2022-07-29T15:09:53;31.60;69.80
23827;DHT22;12094;50.822;4.376;2022-07-29T15:12:28;31.10;71.30
23827;DHT22;12094;50.822;4.376;2022-07-29T15:15:20;30.70;72.00
23827;DHT22;12094;50.822;4.376;2022-07-29T15:18:03;30.50;72.30
23827;DHT22;12094;50.822;4.376;2022-07-29T15:20:30;29.80;72.70
23827;DHT22;12094;50.822;4.376;2022-07-29T15:23:07;29.50;73.80
23827;DHT22;12094;50.822;4.376;2022-07-29T15:25:44;29.30;73.60
23827;DHT22;12094;50.822;4.376;2022-07-29T15:28:35;29.20;74.70
23827;DHT22;12094;50.822;4.376;2022-07-29T15:31:04;28.80;75.10
23827;DHT22;12094;50.822;4.376;2022-07-29T15:34:07;28.60;76.20
23827;DHT22;12094;50.822;4.376;2022-07-29T15:36:39;28.50;76.40
23827;DHT22;12094;50.822;4.376;2022-07-29T15:39:20;28.40;76.60
23827;DHT22;12094;50.822;4.376;2022-07-29T15:42:10;28.20;77.50
23827;DHT22;12094;50.822;4.376;2022-07-29T15:45:12;28.10;78.10
23827;DHT22;12094;50.822;4.376;2022-07-29T15:48:20;28.10;77.90
23827;DHT22;12094;50.822;4.376;2022-07-29T15:50:55;28.10;78.40
23827;DHT22;12094;50.822;4.376;2022-07-29T15:53:22;28.00;78.40
23827;DHT22;12094;50.822;4.376;2022-07-29T15:55:50;28.20;77.20
23827;DHT22;12094;50.822;4.376;2022-07-29T15:58:17;28.10;76.70
23827;DHT22;12094;50.822;4.376;2022-07-29T16:00:44;28.10;77.50
23827;DHT22;12094;50.822;4.376;2022-07-29T16:03:13;28.10;77.80
23827;DHT22;12094;50.822;4.376;2022-07-29T16:05:41;28.20;77.70
23827;DHT22;12094;50.822;4.376;2022-07-29T16:08:09;28.00;78.90
23827;DHT22;12094;50.822;4.376;2022-07-29T16:10:36;27.90;78.90
23827;DHT22;12094;50.822;4.376;2022-07-29T16:13:03;28.10;78.00
23827;DHT22;12094;50.822;4.376;2022-07-29T16:15:30;28.10;78.20
23827;DHT22;12094;50.822;4.376;2022-07-29T16:17:58;28.10;78.40
23827;DHT22;12094;50.822;4.376;2022-07-29T16:20:26;28.10;78.40
23827;DHT22;12094;50.822;4.376;2022-07-29T16:22:54;28.20;78.40
23827;DHT22;12094;50.822;4.376;2022-07-29T16:25:21;28.20;79.10
23827;DHT22;12094;50.822;4.376;2022-07-29T16:28:08;28.00;79.50
23827;DHT22;12094;50.822;4.376;2022-07-29T16:30:36;27.60;79.80
23827;DHT22;12094;50.822;4.376;2022-07-29T16:33:05;27.50;80.70
23827;DHT22;12094;50.822;4.376;2022-07-29T16:35:34;27.70;80.50
23827;DHT22;12094;50.822;4.376;2022-07-29T16:38:05;27.90;79.60
23827;DHT22;12094;50.822;4.376;2022-07-29T16:40:32;28.00;79.50
23827;DHT22;12094;50.822;4.376;2022-07-29T16:42:59;27.90;79.70
23827;DHT22;12094;50.822;4.376;2022-07-29T16:45:27;27.80;80.00
23827;DHT22;12094;50.822;4.376;2022-07-29T16:48:13;27.80;79.70
23827;DHT22;12094;50.822;4.376;2022-07-29T16:50:43;27.60;80.20
23827;DHT22;12094;50.822;4.376;2022-07-29T16:53:10;27.50;80.90